createdAt,value
2018-09-05T00:02:13.442Z,102228.86
2018-09-05T00:04:41.317Z,102235.91
2018-09-05T00:07:08.977Z,102240.86
2018-09-05T00:09:36.672Z,102243.03
2018-09-05T00:12:04.404Z,102242.39
2018-09-05T00:14:32.093Z,102214.45
2018-09-05T00:16:59.734Z,102239.41
2018-09-05T00:19:27.442Z,102246.00
2018-09-05T00:21:55.151Z,102242.08
2018-09-05T00:24:22.924Z,102243.53
2018-09-05T00:26:50.597Z,102244.85
2018-09-05T00:29:18.328Z,102244.29
2018-09-05T00:31:46.041Z,102241.81
2018-09-05T00:34:13.709Z,102243.53
2018-09-05T00:36:41.364Z,102238.84
2018-09-05T00:39:09.532Z,102242.46
2018-09-05T00:41:37.511Z,102242.77
2018-09-05T00:44:05.268Z,102245.05
2018-09-05T00:46:33.024Z,102246.20
2018-09-05T00:49:01.197Z,102245.44
2018-09-05T00:51:28.955Z,102244.41
2018-09-05T00:53:56.601Z,102247.00
2018-09-05T00:56:24.274Z,102247.98
2018-09-05T00:58:51.946Z,102249.32
2018-09-05T01:01:19.631Z,102252.59
2018-09-05T01:03:47.324Z,102248.86
2018-09-05T01:06:15.011Z,102253.62
2018-09-05T01:08:42.769Z,102253.70
2018-09-05T01:11:10.427Z,102257.05
2018-09-05T01:13:38.113Z,102255.64
2018-09-05T01:16:05.833Z,102256.82
2018-09-05T01:18:33.505Z,102253.66
2018-09-05T01:21:01.240Z,102255.56
2018-09-05T01:23:28.905Z,102258.95
2018-09-05T01:25:56.601Z,102253.20
2018-09-05T01:28:24.273Z,102251.80
2018-09-05T01:30:51.925Z,102253.36
2018-09-05T01:33:19.753Z,102254.65
2018-09-05T01:35:47.430Z,102252.59
2018-09-05T01:38:15.120Z,102256.17
2018-09-05T01:40:42.798Z,102250.61
2018-09-05T01:43:10.502Z,102251.27
2018-09-05T01:45:38.182Z,102248.41
2018-09-05T01:48:05.857Z,102243.84
2018-09-05T01:50:39.113Z,102249.12
2018-09-05T01:53:06.765Z,102250.00
2018-09-05T01:55:34.421Z,102251.34
2018-09-05T01:58:02.095Z,102251.11
2018-09-05T02:00:32.566Z,102251.88
2018-09-05T02:03:00.314Z,102253.17
2018-09-05T02:05:28.054Z,102253.77
2018-09-05T02:07:55.730Z,102249.47
2018-09-05T02:10:23.504Z,102254.27
2018-09-05T02:12:51.198Z,102253.93
2018-09-05T02:15:18.861Z,102254.99
2018-09-05T02:17:46.531Z,102252.09
2018-09-05T02:20:14.194Z,102248.28
2018-09-05T02:22:41.868Z,102250.88
2018-09-05T02:25:09.547Z,102257.92
2018-09-05T02:27:37.199Z,102256.82
2018-09-05T02:30:05.212Z,102256.02
2018-09-05T02:32:32.894Z,102259.64
2018-09-05T02:35:00.562Z,102258.95
2018-09-05T02:37:28.315Z,102259.27
2018-09-05T02:39:55.950Z,102265.12
2018-09-05T02:42:23.670Z,102260.59
2018-09-05T02:44:51.389Z,102266.11
2018-09-05T02:47:19.069Z,102263.45
2018-09-05T02:49:46.733Z,102268.50
2018-09-05T02:52:14.386Z,102265.65
2018-09-05T02:54:42.047Z,102265.46
2018-09-05T02:57:09.750Z,102267.25
2018-09-05T02:59:37.490Z,102264.39
2018-09-05T03:02:05.241Z,102264.58
2018-09-05T03:04:33.010Z,102267.16
2018-09-05T03:07:00.692Z,102269.53
2018-09-05T03:09:28.476Z,102263.83
2018-09-05T03:11:56.130Z,102264.02
2018-09-05T03:14:23.825Z,102262.80
2018-09-05T03:16:51.633Z,102258.11
2018-09-05T03:19:19.352Z,102261.65
2018-09-05T03:21:47.116Z,102264.97
2018-09-05T03:24:14.829Z,102267.63
2018-09-05T03:26:42.553Z,102269.53
2018-09-05T03:29:10.266Z,102264.45
2018-09-05T03:31:37.957Z,102265.72
2018-09-05T03:34:05.692Z,102273.91
2018-09-05T03:36:33.387Z,102273.53
2018-09-05T03:39:01.180Z,102276.73
2018-09-05T03:41:28.904Z,102274.09
2018-09-05T03:43:56.631Z,102276.50
2018-09-05T03:46:24.398Z,102276.19
2018-09-05T03:48:52.093Z,102274.48
2018-09-05T03:51:19.790Z,102274.79
2018-09-05T03:53:47.506Z,102274.86
2018-09-05T03:56:15.325Z,102275.81
2018-09-05T03:58:43.034Z,102280.30
2018-09-05T04:01:10.828Z,102279.03
2018-09-05T04:03:38.637Z,102278.66
2018-09-05T04:06:06.390Z,102283.80
2018-09-05T04:08:34.085Z,102285.06
2018-09-05T04:11:01.829Z,102280.87
2018-09-05T04:13:29.541Z,102285.00
2018-09-05T04:15:57.258Z,102287.03
2018-09-05T04:18:24.987Z,102291.03
2018-09-05T04:20:52.728Z,102174.03
2018-09-05T04:23:20.442Z,102304.03
2018-09-05T04:25:48.161Z,102298.23
2018-09-05T04:28:15.857Z,102299.58
2018-09-05T04:30:43.584Z,102293.42
2018-09-05T04:33:11.332Z,102299.77
2018-09-05T04:35:39.042Z,102304.97
2018-09-05T04:38:06.772Z,102308.91
2018-09-05T04:40:34.501Z,102306.94
2018-09-05T04:43:02.237Z,102302.83
2018-09-05T04:45:30.091Z,102306.80
2018-09-05T04:47:57.872Z,102306.42
2018-09-05T04:50:25.693Z,102304.03
2018-09-05T04:52:53.335Z,102308.52
2018-09-05T04:55:21.069Z,102304.53
2018-09-05T04:57:48.773Z,102310.06
2018-09-05T05:00:16.505Z,102311.64
2018-09-05T05:02:44.287Z,102309.10
2018-09-05T05:05:12.005Z,102312.07
2018-09-05T05:07:39.718Z,102316.60
2018-09-05T05:10:07.431Z,102317.35
2018-09-05T05:12:35.205Z,102308.73
2018-09-05T05:15:02.899Z,102317.28
2018-09-05T05:17:30.572Z,102315.36
2018-09-05T05:19:58.299Z,102310.36
2018-09-05T05:22:26.020Z,102312.97
2018-09-05T05:24:53.728Z,102311.84
2018-09-05T05:27:21.447Z,102317.28
2018-09-05T05:29:49.167Z,102312.02
2018-09-05T05:32:16.877Z,102314.41
2018-09-05T05:34:44.676Z,102321.09
2018-09-05T05:37:12.397Z,102309.36
2018-09-05T05:39:40.082Z,102319.36
2018-09-05T05:42:07.766Z,102316.31
2018-09-05T05:44:35.556Z,102319.25
2018-09-05T05:47:03.289Z,102297.98
2018-09-05T05:49:31.048Z,102317.86
2018-09-05T05:52:00.262Z,102320.34
2018-09-05T05:54:29.248Z,102331.76
2018-09-05T05:56:58.770Z,102285.16
2018-09-05T05:59:27.402Z,102318.35
2018-09-05T06:01:56.814Z,102317.59
2018-09-05T06:04:26.134Z,102321.79
2018-09-05T06:07:02.296Z,102327.78
2018-09-05T06:09:30.493Z,102328.08
2018-09-05T06:12:00.820Z,102332.91
2018-09-05T06:14:37.483Z,102337.00
2018-09-05T06:17:06.973Z,102332.91
2018-09-05T06:19:36.517Z,102331.56
2018-09-05T06:22:04.395Z,102328.15
2018-09-05T06:24:35.103Z,102330.06
2018-09-05T06:27:09.118Z,102335.69
2018-09-05T06:29:38.102Z,102344.33
2018-09-05T06:32:07.282Z,102337.10
2018-09-05T06:34:36.509Z,102342.92
2018-09-05T06:37:05.501Z,102335.39
2018-09-05T06:39:34.181Z,102336.64
2018-09-05T06:42:04.248Z,102333.30
2018-09-05T06:44:33.426Z,102330.06
2018-09-05T06:47:02.612Z,102332.14
2018-09-05T06:49:31.615Z,102333.09
2018-09-05T06:52:00.087Z,102332.69
2018-09-05T06:54:28.963Z,102332.43
2018-09-05T06:56:57.630Z,102335.28
2018-09-05T06:59:29.118Z,102339.55
2018-09-05T07:01:57.709Z,102319.30
2018-09-05T07:04:27.196Z,102341.58
2018-09-05T07:06:56.914Z,102341.20
2018-09-05T07:09:26.192Z,102343.38
2018-09-05T07:11:57.818Z,102341.84
2018-09-05T07:14:27.488Z,102340.81
2018-09-05T07:16:55.964Z,102345.58
2018-09-05T07:19:25.064Z,102342.52
2018-09-05T07:21:54.015Z,102340.13
2018-09-05T07:24:24.625Z,102339.38
2018-09-05T07:26:53.480Z,102337.39
2018-09-05T07:29:22.111Z,102345.02
2018-09-05T07:31:50.456Z,102339.98
2018-09-05T07:34:19.068Z,102345.97
2018-09-05T07:36:48.986Z,102338.53
2018-09-05T07:39:19.296Z,102344.17
2018-09-05T07:41:47.909Z,102342.27
2018-09-05T07:44:16.513Z,102344.56
2018-09-05T07:46:45.210Z,102332.37
2018-09-05T07:49:13.883Z,102337.40
2018-09-05T07:51:43.940Z,102338.16
2018-09-05T07:54:11.622Z,102328.28
2018-09-05T07:56:39.355Z,102325.81
2018-09-05T07:59:07.162Z,102323.14
2018-09-05T08:01:35.025Z,102328.47
2018-09-05T08:04:02.871Z,102321.13
2018-09-05T08:06:30.619Z,102323.98
2018-09-05T08:08:58.304Z,102325.88
2018-09-05T08:11:26.037Z,102327.70
2018-09-05T08:13:53.719Z,102328.05
2018-09-05T08:16:21.538Z,102334.17
2018-09-05T08:18:49.214Z,102328.83
2018-09-05T08:21:17.032Z,102328.16
2018-09-05T08:23:44.934Z,102327.86
2018-09-05T08:26:12.637Z,102325.02
2018-09-05T08:28:40.327Z,102329.59
2018-09-05T08:31:08.024Z,102325.77
2018-09-05T08:33:35.706Z,102331.94
2018-09-05T08:36:03.818Z,102329.39
2018-09-05T08:38:31.265Z,102323.53
2018-09-05T08:41:03.439Z,102328.55
2018-09-05T08:43:31.529Z,102328.41
2018-09-05T08:45:59.348Z,102333.21
2018-09-05T08:48:27.110Z,102335.17
2018-09-05T08:50:54.735Z,102328.72
2018-09-05T08:53:22.538Z,102325.06
2018-09-05T08:55:50.171Z,102286.75
2018-09-05T08:58:17.865Z,102322.72
2018-09-05T09:00:45.553Z,102321.00
2018-09-05T09:03:13.217Z,102318.66
2018-09-05T09:05:40.898Z,102320.55
2018-09-05T09:08:08.694Z,102319.64
2018-09-05T09:10:36.376Z,102326.61
2018-09-05T09:13:04.085Z,102329.19
2018-09-05T09:15:31.921Z,102325.10
2018-09-05T09:17:59.665Z,102326.11
2018-09-05T09:20:27.360Z,102316.68
2018-09-05T09:22:55.007Z,102317.05
2018-09-05T09:25:22.680Z,102319.44
2018-09-05T09:27:50.434Z,102321.78
2018-09-05T09:30:18.411Z,102317.02
2018-09-05T09:32:46.094Z,102315.80
2018-09-05T09:35:13.797Z,102314.85
2018-09-05T09:37:41.484Z,102316.10
2018-09-05T09:40:09.448Z,102308.25
2018-09-05T09:42:37.199Z,102301.48
2018-09-05T09:45:08.540Z,102300.85
2018-09-05T09:47:37.733Z,102307.48
2018-09-05T09:50:06.232Z,102304.23
2018-09-05T09:52:39.322Z,102307.28
2018-09-05T09:55:07.904Z,102311.73
2018-09-05T09:57:35.981Z,102312.86
2018-09-05T10:00:04.105Z,102307.98
2018-09-05T10:02:37.237Z,102310.56
2018-09-05T10:05:10.714Z,102306.74
2018-09-05T10:07:43.961Z,102321.23
2018-09-05T10:11:17.788Z,102306.62
2018-09-05T10:13:51.048Z,102310.97
2018-09-05T10:16:24.665Z,102310.63
2018-09-05T10:18:53.541Z,102311.75
2018-09-05T10:21:21.428Z,102306.41
2018-09-05T10:23:49.422Z,102305.73
2018-09-05T10:26:17.092Z,102300.45
2018-09-05T10:28:44.777Z,102308.25
2018-09-05T10:31:12.505Z,102304.86
2018-09-05T10:33:40.211Z,102315.88
2018-09-05T10:36:07.872Z,102315.41
2018-09-05T10:38:35.586Z,102317.87
2018-09-05T10:41:03.272Z,102321.45
2018-09-05T10:43:30.970Z,102327.91
2018-09-05T10:45:58.659Z,102324.19
2018-09-05T10:48:26.408Z,102321.78
2018-09-05T10:50:54.374Z,102320.67
2018-09-05T10:53:22.065Z,102321.03
2018-09-05T10:55:49.756Z,102316.53
2018-09-05T10:58:17.557Z,102318.84
2018-09-05T11:00:45.198Z,102317.56
2018-09-05T11:03:12.878Z,102321.23
2018-09-05T11:05:40.545Z,102320.61
2018-09-05T11:08:08.238Z,102319.48
2018-09-05T11:10:36.226Z,102324.78
2018-09-05T11:13:03.808Z,102326.58
2018-09-05T11:15:31.492Z,102330.50
2018-09-05T11:17:59.149Z,102328.88
2018-09-05T11:20:26.926Z,102321.02
2018-09-05T11:22:54.608Z,102320.05
2018-09-05T11:25:22.303Z,102320.20
2018-09-05T11:27:50.055Z,102325.46
2018-09-05T11:30:17.705Z,102328.57
2018-09-05T11:32:45.429Z,102324.59
2018-09-05T11:35:13.149Z,102325.15
2018-09-05T11:37:40.878Z,102322.47
2018-09-05T11:40:09.321Z,102319.08
2018-09-05T11:42:37.004Z,102318.02
2018-09-05T11:45:04.723Z,102320.85
2018-09-05T11:47:32.447Z,102319.97
2018-09-05T11:50:00.138Z,102319.50
2018-09-05T11:52:27.828Z,102320.78
2018-09-05T11:54:55.497Z,102316.23
2018-09-05T11:57:23.203Z,102316.33
2018-09-05T11:59:50.881Z,102320.40
2018-09-05T12:02:18.766Z,102315.88
2018-09-05T12:04:46.381Z,102315.33
2018-09-05T12:07:14.092Z,102322.11
2018-09-05T12:09:41.741Z,102321.05
2018-09-05T12:12:24.391Z,102319.97
2018-09-05T12:14:52.078Z,102316.75
2018-09-05T12:17:19.813Z,102320.70
2018-09-05T12:19:47.491Z,102325.09
2018-09-05T12:22:15.190Z,102326.27
2018-09-05T12:24:42.887Z,102321.57
2018-09-05T12:27:10.574Z,102322.03
2018-09-05T12:29:38.231Z,102322.02
2018-09-05T12:32:05.996Z,102325.44
2018-09-05T12:34:33.665Z,102315.12
2018-09-05T12:37:01.337Z,102320.70
2018-09-05T12:39:28.995Z,102319.73
2018-09-05T12:41:56.666Z,102324.02
2018-09-05T12:44:24.329Z,102323.75
2018-09-05T12:46:52.769Z,102327.30
2018-09-05T12:49:20.725Z,102319.51
2018-09-05T12:51:48.405Z,102320.45
2018-09-05T12:54:16.173Z,102327.77
2018-09-05T12:56:43.853Z,102325.22
2018-09-05T12:59:11.573Z,102322.41
2018-09-05T13:01:39.289Z,102317.05
2018-09-05T13:04:07.354Z,102316.91
2018-09-05T13:06:36.214Z,102325.96
2018-09-05T13:09:06.269Z,102325.06
2018-09-05T13:11:33.942Z,102327.91
2018-09-05T13:14:01.642Z,102328.95
2018-09-05T13:16:29.338Z,102328.27
2018-09-05T13:18:57.004Z,102335.49
2018-09-05T13:21:24.717Z,102333.64
2018-09-05T13:23:52.384Z,102330.38
2018-09-05T13:26:20.091Z,102330.89
2018-09-05T13:28:47.812Z,102327.84
2018-09-05T13:31:15.477Z,102330.38
2018-09-05T13:33:43.147Z,102332.06
2018-09-05T13:36:10.967Z,102327.69
2018-09-05T13:38:38.666Z,102332.08
2018-09-05T13:41:06.350Z,102291.77
2018-09-05T13:43:34.030Z,102334.91
2018-09-05T13:46:01.962Z,102330.83
2018-09-05T13:48:29.682Z,102331.58
2018-09-05T13:50:57.446Z,102329.92
2018-09-05T13:53:25.122Z,102323.45
2018-09-05T13:55:52.783Z,102329.55
2018-09-05T13:58:20.432Z,102321.89
2018-09-05T14:00:48.091Z,102324.47
2018-09-05T14:03:15.754Z,102318.77
2018-09-05T14:05:43.476Z,102319.95
2018-09-05T14:08:11.198Z,102314.87
2018-09-05T14:10:38.868Z,102316.30
2018-09-05T14:13:06.629Z,102313.34
2018-09-05T14:15:34.349Z,102309.91
2018-09-05T14:18:02.063Z,102281.47
2018-09-05T14:20:29.865Z,102314.37
2018-09-05T14:22:57.585Z,102315.64
2018-09-05T14:25:25.259Z,102319.59
2018-09-05T14:27:52.929Z,102315.86
2018-09-05T14:30:20.605Z,102301.28
2018-09-05T14:32:48.264Z,102316.98
2018-09-05T14:35:15.938Z,102314.07
2018-09-05T14:37:43.600Z,102313.26
2018-09-05T14:40:11.349Z,102312.08
2018-09-05T14:42:38.988Z,102312.76
2018-09-05T14:45:06.675Z,102313.78
2018-09-05T14:47:34.332Z,102308.75
2018-09-05T14:50:02.023Z,102314.59
2018-09-05T14:52:29.686Z,102308.42
2018-09-05T14:54:57.385Z,102308.50
2018-09-05T14:57:25.077Z,102310.36
2018-09-05T14:59:52.898Z,102310.58
2018-09-05T15:02:20.553Z,102311.02
2018-09-05T15:04:48.247Z,102307.97
2018-09-05T15:07:15.980Z,102306.04
2018-09-05T15:09:43.666Z,102304.33
2018-09-05T15:12:11.393Z,102307.38
2018-09-05T15:14:39.058Z,102305.45
2018-09-05T15:17:06.880Z,102305.67
2018-09-05T15:19:34.602Z,102297.59
2018-09-05T15:22:02.401Z,102303.84
2018-09-05T15:24:30.171Z,102301.81
2018-09-05T15:26:57.905Z,102299.98
2018-09-05T15:29:25.614Z,102296.62
2018-09-05T15:31:53.325Z,102300.33
2018-09-05T15:34:21.046Z,102296.93
2018-09-05T15:36:48.855Z,102291.86
2018-09-05T15:39:16.617Z,102302.88
2018-09-05T15:41:44.362Z,102299.23
2018-09-05T15:44:12.065Z,102289.22
2018-09-05T15:46:39.797Z,102297.87
2018-09-05T15:49:07.634Z,102296.31
2018-09-05T15:51:35.438Z,102296.41
2018-09-05T15:54:03.383Z,102295.19
2018-09-05T15:56:31.066Z,102286.14
2018-09-05T15:58:58.875Z,102254.55
2018-09-05T16:01:26.692Z,102284.93
2018-09-05T16:03:54.422Z,102287.79
2018-09-05T16:06:22.665Z,102287.39
2018-09-05T16:08:51.314Z,102285.98
2018-09-05T16:11:20.199Z,102282.09
2018-09-05T16:13:48.370Z,102284.62
2018-09-05T16:16:17.897Z,102283.66
2018-09-05T16:18:46.192Z,102285.83
2018-09-05T16:21:15.668Z,102284.06
2018-09-05T16:23:43.393Z,102285.89
2018-09-05T16:26:12.343Z,102283.22
2018-09-05T16:28:40.579Z,102285.77
2018-09-05T16:31:08.891Z,102278.61
2018-09-05T16:33:36.677Z,102279.58
2018-09-05T16:36:04.488Z,102278.92
2018-09-05T16:38:32.188Z,102280.98
2018-09-05T16:40:59.889Z,102280.59
2018-09-05T16:43:27.639Z,102282.55
2018-09-05T16:45:55.341Z,102283.74
2018-09-05T16:48:23.061Z,102280.04
2018-09-05T16:50:50.774Z,101847.20
2018-09-05T16:53:18.463Z,102277.58
2018-09-05T16:55:46.243Z,102278.17
2018-09-05T16:58:13.977Z,102284.11
2018-09-05T17:00:41.658Z,102290.01
2018-09-05T17:03:09.336Z,102279.06
2018-09-05T17:05:37.044Z,102278.99
2018-09-05T17:08:04.784Z,102285.30
2018-09-05T17:10:32.524Z,102283.50
2018-09-05T17:13:00.223Z,102284.72
2018-09-05T17:15:28.021Z,102280.01
2018-09-05T17:17:56.103Z,102283.20
2018-09-05T17:20:23.812Z,102290.04
2018-09-05T17:22:51.638Z,102287.75
2018-09-05T17:25:19.334Z,102293.05
2018-09-05T17:27:47.017Z,102291.17
2018-09-05T17:30:14.745Z,102293.84
2018-09-05T17:32:42.458Z,102288.67
2018-09-05T17:35:10.189Z,102293.89
2018-09-05T17:37:37.894Z,102294.06
2018-09-05T17:40:05.694Z,102291.39
2018-09-05T17:42:33.373Z,102300.06
2018-09-05T17:45:01.170Z,102295.69
2018-09-05T17:47:28.878Z,102294.72
2018-09-05T17:49:56.695Z,102294.80
2018-09-05T17:52:24.418Z,102292.52
2018-09-05T17:54:52.123Z,102287.95
2018-09-05T17:57:19.834Z,102289.88
2018-09-05T17:59:47.549Z,102288.00
2018-09-05T18:02:15.236Z,102292.48
2018-09-05T18:04:42.942Z,102291.61
2018-09-05T18:07:10.692Z,102291.14
2018-09-05T18:09:38.396Z,102293.52
2018-09-05T18:12:06.499Z,102292.96
2018-09-05T18:14:34.306Z,102296.59
2018-09-05T18:17:02.078Z,102302.50
2018-09-05T18:19:29.759Z,102295.67
2018-09-05T18:21:57.425Z,102303.48
2018-09-05T18:24:25.210Z,102303.86
2018-09-05T18:26:52.893Z,102296.03
2018-09-05T18:29:20.766Z,102298.44
2018-09-05T18:31:48.442Z,102296.83
2018-09-05T18:34:16.126Z,102296.98
2018-09-05T18:36:43.840Z,102290.91
2018-09-05T18:39:11.582Z,102295.84
2018-09-05T18:41:39.385Z,102295.64
2018-09-05T18:44:07.138Z,102291.45
2018-09-05T18:46:34.906Z,102301.06
2018-09-05T18:49:02.602Z,102297.73
2018-09-05T18:51:30.451Z,102297.73
2018-09-05T18:53:58.152Z,102297.70
2018-09-05T18:56:25.916Z,102301.84
2018-09-05T18:58:53.717Z,102307.28
2018-09-05T19:01:21.460Z,102302.36
2018-09-05T19:03:49.206Z,102307.76
2018-09-05T19:06:16.942Z,102308.06
2018-09-05T19:08:44.649Z,102299.98
2018-09-05T19:11:12.356Z,102294.19
2018-09-05T19:13:40.075Z,102301.50
2018-09-05T19:16:07.777Z,102302.72
2018-09-05T19:18:35.517Z,102307.49
2018-09-05T19:21:03.285Z,102310.37
2018-09-05T19:23:31.465Z,102313.41
2018-09-05T19:25:59.200Z,102307.13
2018-09-05T19:28:26.944Z,102308.27
2018-09-05T19:30:54.738Z,102309.30
2018-09-05T19:33:22.449Z,102303.46
2018-09-05T19:35:50.433Z,102310.64
2018-09-05T19:38:18.460Z,102302.34
2018-09-05T19:40:46.212Z,102313.48
2018-09-05T19:43:13.932Z,102297.02
2018-09-05T19:45:41.638Z,102307.09
2018-09-05T19:48:09.302Z,102306.94
2018-09-05T19:50:36.962Z,102309.52
2018-09-05T19:53:04.666Z,102306.94
2018-09-05T19:55:32.353Z,102311.04
2018-09-05T19:58:00.082Z,102313.97
2018-09-05T20:00:27.734Z,102310.84
2018-09-05T20:02:55.462Z,102305.04
2018-09-05T20:05:23.148Z,102312.07
2018-09-05T20:07:50.817Z,102305.42
2018-09-05T20:10:18.482Z,102313.59
2018-09-05T20:12:46.137Z,102309.80
2018-09-05T20:15:13.818Z,102305.61
2018-09-05T20:17:41.532Z,102307.41
2018-09-05T20:20:09.201Z,102305.90
2018-09-05T20:22:36.858Z,102315.49
2018-09-05T20:25:04.595Z,102304.45
2018-09-05T20:27:32.302Z,102307.84
2018-09-05T20:29:59.992Z,102300.08
2018-09-05T20:32:27.653Z,102301.02
2018-09-05T20:34:55.366Z,102293.22
2018-09-05T20:37:23.025Z,102291.89
2018-09-05T20:39:50.761Z,102289.71
2018-09-05T20:42:18.427Z,102288.65
2018-09-05T20:44:46.093Z,102296.07
2018-09-05T20:47:13.768Z,102288.80
2018-09-05T20:49:41.536Z,102288.53
2018-09-05T20:52:09.208Z,102267.89
2018-09-05T20:54:36.861Z,102284.16
2018-09-05T20:57:04.644Z,102281.45
2018-09-05T20:59:32.287Z,102286.63
2018-09-05T21:02:00.005Z,102284.36
2018-09-05T21:04:27.730Z,102287.34
2018-09-05T21:06:55.646Z,102288.64
2018-09-05T21:09:23.323Z,102289.22
2018-09-05T21:11:51.857Z,102288.53
2018-09-05T21:14:19.532Z,102289.98
2018-09-05T21:16:47.248Z,102295.42
2018-09-05T21:19:14.912Z,102293.66
2018-09-05T21:21:42.567Z,102291.37
2018-09-05T21:24:10.217Z,102285.47
2018-09-05T21:26:37.948Z,102285.48
2018-09-05T21:29:05.617Z,102293.31
2018-09-05T21:31:33.276Z,102287.66
2018-09-05T21:34:00.924Z,102288.34
2018-09-05T21:36:28.601Z,102282.83
2018-09-05T21:38:56.251Z,102287.27
2018-09-05T21:41:23.918Z,102284.91
2018-09-05T21:43:51.577Z,102282.89
2018-09-05T21:46:19.245Z,102274.95
2018-09-05T21:48:46.924Z,102282.87
2018-09-05T21:51:14.590Z,102282.40
2018-09-05T21:53:42.262Z,102275.44
2018-09-05T21:56:09.920Z,102274.16
2018-09-05T21:58:37.602Z,102274.39
2018-09-05T22:01:05.294Z,102273.70
2018-09-05T22:03:32.969Z,102271.05
2018-09-05T22:06:00.628Z,102271.52
2018-09-05T22:08:28.311Z,102274.91
2018-09-05T22:10:57.666Z,102278.92
2018-09-05T22:13:25.373Z,102281.16
2018-09-05T22:15:53.023Z,102280.66
2018-09-05T22:18:20.689Z,102287.78
2018-09-05T22:20:48.346Z,102286.31
2018-09-05T22:23:15.992Z,102281.78
2018-09-05T22:25:43.661Z,102282.19
2018-09-05T22:28:11.318Z,102283.23
2018-09-05T22:30:38.997Z,102281.13
2018-09-05T22:33:06.989Z,102288.08
2018-09-05T22:35:34.636Z,102279.45
2018-09-05T22:38:02.326Z,102282.63
2018-09-05T22:40:31.773Z,102283.20
2018-09-05T22:43:11.322Z,102277.80
2018-09-05T22:45:50.066Z,102276.80
2018-09-05T22:48:34.345Z,102275.26
2018-09-05T22:51:18.894Z,102276.73
2018-09-05T22:54:10.106Z,102269.00
2018-09-05T22:59:01.238Z,102275.42
2018-09-05T23:02:47.278Z,102275.08
2018-09-05T23:06:24.356Z,102276.42
2018-09-05T23:08:52.026Z,102277.52
2018-09-05T23:11:37.573Z,102282.63
2018-09-05T23:14:16.368Z,102280.27
2018-09-05T23:17:53.547Z,102283.86
2018-09-05T23:20:30.196Z,102274.95
2018-09-05T23:24:10.113Z,102271.52
2018-09-05T23:26:37.928Z,102270.66
2018-09-05T23:29:05.622Z,102268.53
2018-09-05T23:31:33.317Z,102266.02
2018-09-05T23:34:00.986Z,102268.45
2018-09-05T23:36:28.689Z,102266.70
2018-09-05T23:38:56.362Z,102260.96
2018-09-05T23:41:24.037Z,102261.65
2018-09-05T23:43:51.737Z,102264.84
2018-09-05T23:46:19.436Z,102253.81
2018-09-05T23:48:47.160Z,102261.21
2018-09-05T23:51:14.886Z,102267.28
2018-09-05T23:53:42.565Z,102257.37
2018-09-05T23:56:10.254Z,102254.77
2018-09-05T23:58:37.940Z,102252.84
